Time;durP1;ratioP1;P1;durP2;ratioP2;P2;SDS_P1;SDS_P2;PMS_P1;PMS_P2;Temp;Humidity;BMP_temperature;BMP_pressure;BME280_temperature;BME280_humidity;BME280_pressure;Samples;Min_cycle;Max_cycle;Signal;HPM_P1;HPM_P2
2024/01/28 00:01:43;;;;;;;38.15;14.07;;;3.60;99.90;;;;;;5080658;28;20339;-41
2024/01/28 00:04:09;;;;;;;34.92;13.55;;;3.70;99.90;;;;;;5080677;28;20624;-43
2024/01/28 00:06:35;;;;;;;33.42;12.95;;;3.60;99.90;;;;;;5062727;28;20193;-40
2024/01/28 00:09:01;;;;;;;31.80;13.15;;;3.60;99.90;;;;;;5080562;28;20250;-38
2024/01/28 00:11:27;;;;;;;33.97;14.13;;;3.60;99.90;;;;;;5084676;28;20237;-43
2024/01/28 00:13:52;;;;;;;36.65;13.82;;;3.60;99.90;;;;;;5084699;28;20212;-41
2024/01/28 00:16:20;;;;;;;35.25;13.02;;;3.60;99.90;;;;;;5085006;28;20186;-41
2024/01/28 00:18:46;;;;;;;29.65;12.27;;;3.60;99.90;;;;;;5083906;28;20234;-40
2024/01/28 00:21:11;;;;;;;34.95;13.38;;;3.60;99.90;;;;;;5084668;28;20177;-37
2024/01/28 00:23:37;;;;;;;26.20;12.48;;;3.50;99.90;;;;;;5083994;28;20185;-38
2024/01/28 00:26:04;;;;;;;32.50;13.10;;;3.50;99.90;;;;;;5083490;28;20186;-43
2024/01/28 00:28:30;;;;;;;33.35;13.35;;;3.50;99.90;;;;;;5084311;28;20939;-42
2024/01/28 00:30:56;;;;;;;31.55;12.40;;;3.50;99.90;;;;;;5083810;28;20209;-41
2024/01/28 00:33:22;;;;;;;28.30;12.38;;;3.50;99.90;;;;;;5084037;28;20220;-40
2024/01/28 00:35:48;;;;;;;32.90;13.07;;;3.50;99.90;;;;;;5082315;28;20190;-39
2024/01/28 00:38:14;;;;;;;29.02;12.23;;;3.50;99.90;;;;;;5083000;28;20201;-40
2024/01/28 00:40:40;;;;;;;35.40;12.40;;;3.50;99.90;;;;;;5084150;28;20226;-41
2024/01/28 00:43:05;;;;;;;33.25;12.38;;;3.50;99.90;;;;;;5082051;28;20652;-44
2024/01/28 00:45:31;;;;;;;29.90;12.73;;;3.40;99.90;;;;;;5081872;28;20186;-45
2024/01/28 00:47:58;;;;;;;30.55;11.70;;;3.40;99.90;;;;;;5083600;28;20598;-47
2024/01/28 00:50:24;;;;;;;28.98;11.70;;;3.40;99.90;;;;;;5084157;28;20240;-42
2024/01/28 00:52:50;;;;;;;32.53;11.82;;;3.40;99.90;;;;;;5081664;28;20190;-43
2024/01/28 00:55:16;;;;;;;34.70;12.23;;;3.40;99.90;;;;;;5083415;28;20235;-46
2024/01/28 00:57:42;;;;;;;33.35;11.85;;;3.40;99.90;;;;;;5083921;28;20186;-40
2024/01/28 01:00:09;;;;;;;28.75;12.00;;;3.40;99.90;;;;;;5083359;28;20197;-39
2024/01/28 01:02:34;;;;;;;38.88;11.95;;;3.40;99.90;;;;;;5083968;28;20277;-39
2024/01/28 01:05:01;;;;;;;28.27;11.65;;;3.40;99.90;;;;;;5083641;28;20343;-45
2024/01/28 01:07:27;;;;;;;32.00;11.13;;;3.40;99.90;;;;;;5081428;28;20224;-39
2024/01/28 01:09:53;;;;;;;34.38;12.18;;;3.40;99.90;;;;;;5083234;28;20210;-40
2024/01/28 01:12:19;;;;;;;33.75;11.60;;;3.40;99.90;;;;;;5082824;28;20201;-43
2024/01/28 01:14:45;;;;;;;33.42;11.55;;;3.40;99.90;;;;;;5083614;28;20277;-42
2024/01/28 01:17:11;;;;;;;27.17;10.38;;;3.40;99.90;;;;;;5082913;28;20192;-41
2024/01/28 01:19:37;;;;;;;29.23;10.98;;;3.40;99.90;;;;;;5083111;28;20673;-40
2024/01/28 01:22:03;;;;;;;25.67;10.57;;;3.40;99.90;;;;;;5081522;28;20254;-40
2024/01/28 01:24:29;;;;;;;26.02;10.10;;;3.40;99.90;;;;;;5082368;28;20752;-40
2024/01/28 01:26:55;;;;;;;30.48;10.73;;;3.40;99.90;;;;;;5082002;28;20201;-39
2024/01/28 01:29:21;;;;;;;31.75;11.25;;;3.40;99.90;;;;;;5081884;28;20194;-42
2024/01/28 01:31:47;;;;;;;24.65;11.00;;;3.40;99.90;;;;;;5081429;28;20572;-43
2024/01/28 01:34:14;;;;;;;31.58;10.15;;;3.40;99.90;;;;;;5083169;28;20254;-41
2024/01/28 01:36:44;;;;;;;29.48;10.60;;;3.40;99.90;;;;;;5083163;28;20178;-43
2024/01/28 01:39:10;;;;;;;29.17;10.73;;;3.50;99.90;;;;;;5082571;28;20221;-41
2024/01/28 01:41:36;;;;;;;29.95;10.80;;;3.50;99.90;;;;;;5082564;28;20194;-42
2024/01/28 01:44:01;;;;;;;27.42;10.57;;;3.50;99.90;;;;;;5082869;28;20186;-40
2024/01/28 01:46:29;;;;;;;26.17;11.45;;;3.50;99.90;;;;;;5082253;28;20212;-44
2024/01/28 01:48:56;;;;;;;22.23;10.55;;;3.50;99.90;;;;;;5082894;28;20941;-43
2024/01/28 01:51:23;;;;;;;28.75;10.50;;;3.50;99.90;;;;;;5081011;28;20295;-40
2024/01/28 01:53:50;;;;;;;23.65;10.18;;;3.50;99.90;;;;;;5082325;28;20293;-41
2024/01/28 01:56:16;;;;;;;23.95;9.85;;;3.50;99.90;;;;;;5066066;28;20194;-45
2024/01/28 01:58:43;;;;;;;29.90;10.38;;;3.50;99.90;;;;;;5082312;28;20815;-42
2024/01/28 02:01:11;;;;;;;31.83;10.93;;;3.60;99.90;;;;;;5082740;28;20186;-46
2024/01/28 02:03:37;;;;;;;33.05;10.27;;;3.60;99.90;;;;;;5080730;28;20197;-39
2024/01/28 02:06:05;;;;;;;33.78;11.07;;;3.60;99.90;;;;;;5080286;28;20189;-44
2024/01/28 02:08:32;;;;;;;30.08;10.35;;;3.60;99.90;;;;;;5081435;28;20212;-44
2024/01/28 02:11:02;;;;;;;31.67;10.85;;;3.60;99.90;;;;;;5082458;28;20210;-41
2024/01/28 02:13:28;;;;;;;26.90;10.80;;;3.60;99.90;;;;;;5081987;28;20189;-38
2024/01/28 02:15:53;;;;;;;21.70;10.05;;;3.60;99.90;;;;;;5081185;28;20178;-41
2024/01/28 02:18:19;;;;;;;22.88;9.77;;;3.70;99.90;;;;;;5082376;28;20197;-41
2024/01/28 02:20:45;;;;;;;24.70;9.90;;;3.60;99.90;;;;;;5081390;28;20193;-43
2024/01/28 02:23:17;;;;;;;24.50;9.93;;;3.70;99.90;;;;;;5081933;28;20247;-41
2024/01/28 02:25:43;;;;;;;25.27;9.63;;;3.70;99.90;;;;;;5081985;28;20588;-44
2024/01/28 02:28:09;;;;;;;26.10;10.43;;;3.70;99.90;;;;;;5082137;28;20185;-44
2024/01/28 02:30:35;;;;;;;19.55;9.32;;;3.80;99.90;;;;;;5080625;28;20707;-39
2024/01/28 02:33:01;;;;;;;29.80;9.85;;;3.80;99.90;;;;;;5080364;28;20196;-46
2024/01/28 02:35:27;;;;;;;28.55;10.73;;;3.80;99.90;;;;;;5081986;28;20174;-42
2024/01/28 02:37:53;;;;;;;33.85;10.90;;;3.80;99.90;;;;;;5081803;28;20194;-40
2024/01/28 02:40:20;;;;;;;26.83;10.68;;;3.80;99.90;;;;;;5082053;28;20229;-39
2024/01/28 02:42:46;;;;;;;30.10;11.02;;;3.80;99.90;;;;;;5081281;28;20197;-43
2024/01/28 02:45:12;;;;;;;23.92;11.07;;;3.80;99.90;;;;;;5081445;28;20247;-47
2024/01/28 02:47:38;;;;;;;36.75;11.00;;;3.80;99.90;;;;;;5080370;28;20182;-42
2024/01/28 02:50:04;;;;;;;33.13;11.40;;;3.80;99.90;;;;;;5081638;28;20238;-41
2024/01/28 02:52:30;;;;;;;28.38;11.40;;;3.90;99.90;;;;;;5081840;28;20270;-44
2024/01/28 02:54:56;;;;;;;33.95;11.82;;;3.90;99.90;;;;;;5080740;28;20276;-44
2024/01/28 02:57:22;;;;;;;30.48;11.60;;;3.90;99.90;;;;;;5080852;28;20225;-38
2024/01/28 02:59:48;;;;;;;27.60;12.07;;;3.90;99.90;;;;;;5080505;28;20193;-42
2024/01/28 03:02:15;;;;;;;28.70;12.00;;;3.90;99.90;;;;;;5081354;28;20194;-42
2024/01/28 03:04:40;;;;;;;27.20;11.80;;;3.90;99.90;;;;;;5080418;28;20264;-44
2024/01/28 03:07:07;;;;;;;27.88;11.50;;;3.90;99.90;;;;;;5081166;28;20619;-40
2024/01/28 03:09:33;;;;;;;28.65;11.93;;;3.90;99.90;;;;;;5079647;28;20268;-37
2024/01/28 03:11:59;;;;;;;29.70;11.23;;;3.90;99.90;;;;;;5081359;28;20316;-44
2024/01/28 03:14:26;;;;;;;22.90;11.18;;;4.00;99.90;;;;;;5081403;28;20208;-41
2024/01/28 03:16:52;;;;;;;28.95;12.70;;;4.00;99.90;;;;;;5080057;28;20217;-42
2024/01/28 03:19:18;;;;;;;23.77;11.23;;;4.00;99.90;;;;;;5081212;28;20188;-41
2024/01/28 03:21:44;;;;;;;26.90;11.45;;;4.00;99.90;;;;;;5081284;28;20540;-40
2024/01/28 03:24:10;;;;;;;35.42;11.93;;;4.00;99.90;;;;;;5081192;28;20596;-44
2024/01/28 03:26:37;;;;;;;23.20;10.90;;;4.00;99.90;;;;;;5079453;28;20708;-43
2024/01/28 03:29:04;;;;;;;31.52;11.27;;;4.00;99.90;;;;;;5081455;28;20251;-44
2024/01/28 03:31:30;;;;;;;32.13;10.80;;;4.10;99.90;;;;;;5079388;28;20672;-37
2024/01/28 03:33:57;;;;;;;31.33;11.10;;;4.10;99.90;;;;;;5079709;28;20310;-45
2024/01/28 03:36:24;;;;;;;25.80;11.38;;;4.10;99.90;;;;;;5079726;28;20255;-41
2024/01/28 03:38:49;;;;;;;27.67;11.00;;;4.10;99.90;;;;;;5081115;28;20236;-37
2024/01/28 03:41:16;;;;;;;23.13;11.27;;;4.10;99.90;;;;;;5080918;28;20193;-41
2024/01/28 03:43:48;;;;;;;28.08;10.48;;;4.20;99.90;;;;;;5081346;28;20227;-43
2024/01/28 03:46:14;;;;;;;24.77;11.25;;;4.20;99.90;;;;;;5085185;28;20193;-41
2024/01/28 03:48:40;;;;;;;23.58;10.73;;;4.20;99.90;;;;;;5085087;28;20276;-45
2024/01/28 03:51:06;;;;;;;25.95;11.02;;;4.10;99.90;;;;;;5084888;28;20300;-42
2024/01/28 03:53:33;;;;;;;28.65;11.52;;;4.20;99.90;;;;;;5083136;28;20182;-45
2024/01/28 03:55:59;;;;;;;26.38;11.15;;;4.10;99.90;;;;;;5085358;28;20222;-40
2024/01/28 03:58:25;;;;;;;27.83;11.02;;;4.10;99.90;;;;;;5085193;28;20627;-42
2024/01/28 04:00:51;;;;;;;28.88;10.43;;;4.10;99.90;;;;;;5084257;28;20355;-44
2024/01/28 04:03:16;;;;;;;29.00;11.48;;;4.00;99.90;;;;;;5085293;28;20186;-39
2024/01/28 04:05:43;;;;;;;26.58;10.63;;;4.00;99.90;;;;;;5084709;28;20209;-41
2024/01/28 04:08:12;;;;;;;25.17;11.55;;;4.00;99.90;;;;;;5084743;28;20193;-42
2024/01/28 04:10:38;;;;;;;25.83;10.68;;;4.00;99.90;;;;;;5084542;28;20220;-44
2024/01/28 04:13:04;;;;;;;24.17;10.90;;;4.00;99.90;;;;;;5084454;28;20190;-39
2024/01/28 04:15:30;;;;;;;24.77;10.50;;;4.00;99.90;;;;;;5084187;28;20264;-40
2024/01/28 04:17:56;;;;;;;23.58;11.15;;;4.00;99.90;;;;;;5084474;28;20292;-42
2024/01/28 04:20:22;;;;;;;22.20;11.18;;;4.00;99.90;;;;;;5084543;28;20966;-41
2024/01/28 04:22:48;;;;;;;27.70;11.32;;;4.00;99.90;;;;;;5084119;28;20193;-41
2024/01/28 04:25:13;;;;;;;24.40;10.75;;;3.90;99.90;;;;;;5083663;28;20670;-40
2024/01/28 04:27:39;;;;;;;21.88;10.20;;;4.00;99.90;;;;;;5083086;28;20193;-42
2024/01/28 04:30:06;;;;;;;22.20;10.18;;;4.00;99.90;;;;;;5083904;28;20178;-39
2024/01/28 04:32:32;;;;;;;25.35;10.70;;;4.00;99.90;;;;;;5084479;28;20218;-41
2024/01/28 04:34:58;;;;;;;24.17;11.15;;;3.90;99.90;;;;;;5084227;28;20242;-43
2024/01/28 04:37:26;;;;;;;30.70;10.18;;;3.90;99.90;;;;;;5082322;28;20199;-42
2024/01/28 04:39:53;;;;;;;29.55;11.02;;;3.90;99.90;;;;;;5084329;28;20258;-42
2024/01/28 04:42:22;;;;;;;19.77;10.15;;;3.90;99.90;;;;;;5084211;28;20205;-44
2024/01/28 04:44:51;;;;;;;24.35;10.10;;;3.80;99.90;;;;;;5084064;28;20194;-41
2024/01/28 04:47:17;;;;;;;28.08;10.75;;;3.80;99.90;;;;;;5083757;28;20190;-44
2024/01/28 04:49:43;;;;;;;24.00;10.02;;;3.80;99.90;;;;;;5083914;28;20189;-43
2024/01/28 04:52:09;;;;;;;25.83;10.60;;;3.70;99.90;;;;;;5081853;28;20242;-40
2024/01/28 04:54:35;;;;;;;30.77;10.40;;;3.70;99.90;;;;;;5081862;28;21121;-42
2024/01/28 04:57:01;;;;;;;28.65;10.55;;;3.70;99.90;;;;;;5083603;28;20196;-42
2024/01/28 04:59:28;;;;;;;23.42;10.07;;;3.60;99.90;;;;;;5083691;28;20200;-43
2024/01/28 05:01:55;;;;;;;23.88;10.52;;;3.60;99.90;;;;;;5083641;28;20561;-43
2024/01/28 05:04:21;;;;;;;28.35;10.93;;;3.60;99.90;;;;;;5082698;28;20428;-40
2024/01/28 05:06:47;;;;;;;29.90;10.73;;;3.50;99.90;;;;;;5083981;28;20193;-41
2024/01/28 05:09:12;;;;;;;24.73;10.63;;;3.50;99.90;;;;;;5081655;28;20189;-40
2024/01/28 05:11:38;;;;;;;22.60;10.18;;;3.50;99.90;;;;;;5082194;28;20681;-45
2024/01/28 05:14:04;;;;;;;21.58;10.68;;;3.50;99.90;;;;;;5083569;28;20193;-43
2024/01/28 05:16:30;;;;;;;23.40;10.77;;;3.40;99.90;;;;;;5083669;28;20188;-39
2024/01/28 05:18:56;;;;;;;27.45;10.98;;;3.40;99.90;;;;;;5080215;28;20186;-40
2024/01/28 05:21:25;;;;;;;26.00;10.50;;;3.40;99.90;;;;;;5065549;28;20239;-41
2024/01/28 05:23:51;;;;;;;21.98;10.82;;;3.40;99.90;;;;;;5081779;28;20193;-40
2024/01/28 05:26:17;;;;;;;29.75;10.90;;;3.40;99.90;;;;;;5083084;28;20231;-44
2024/01/28 05:28:45;;;;;;;27.88;10.77;;;3.40;99.90;;;;;;5082336;28;20190;-41
2024/01/28 05:31:11;;;;;;;20.17;10.02;;;3.40;99.90;;;;;;5083089;28;20205;-45
2024/01/28 05:33:37;;;;;;;19.27;10.30;;;3.30;99.90;;;;;;5083209;28;20737;-41
2024/01/28 05:36:16;;;;;;;31.63;11.02;;;3.30;99.90;;;;;;5083285;28;20596;-44
2024/01/28 05:38:44;;;;;;;26.23;10.88;;;3.30;99.90;;;;;;5082359;28;20569;-42
2024/01/28 05:41:10;;;;;;;28.17;10.77;;;3.30;99.90;;;;;;5082917;28;20194;-42
2024/01/28 05:43:36;;;;;;;35.72;11.20;;;3.30;99.90;;;;;;5082215;28;20197;-44
2024/01/28 05:46:03;;;;;;;31.58;10.93;;;3.20;99.90;;;;;;5081726;28;20660;-41
2024/01/28 05:48:29;;;;;;;30.58;10.80;;;3.20;99.90;;;;;;5083145;28;20182;-42
2024/01/28 05:50:55;;;;;;;25.70;11.57;;;3.20;99.90;;;;;;5082355;28;20224;-41
2024/01/28 05:53:23;;;;;;;23.98;11.15;;;3.20;99.90;;;;;;5082829;28;20182;-43
2024/01/28 05:55:51;;;;;;;24.63;11.00;;;3.20;99.90;;;;;;5082792;28;20190;-45
2024/01/28 05:58:17;;;;;;;25.65;11.85;;;3.10;99.90;;;;;;5064548;28;20205;-43
2024/01/28 06:00:44;;;;;;;29.40;11.10;;;3.10;99.90;;;;;;5078759;28;20952;-43
2024/01/28 06:03:10;;;;;;;24.17;10.88;;;3.10;99.90;;;;;;5082414;28;20225;-41
2024/01/28 06:05:36;;;;;;;25.52;11.13;;;3.10;99.90;;;;;;5082242;28;20298;-44
2024/01/28 06:08:01;;;;;;;28.58;10.85;;;3.10;99.90;;;;;;5081883;28;21666;-43
2024/01/28 06:10:27;;;;;;;24.73;11.23;;;3.10;99.90;;;;;;5082578;28;20269;-42
2024/01/28 06:12:53;;;;;;;24.67;11.57;;;3.10;99.90;;;;;;5081923;28;20185;-40
2024/01/28 06:15:19;;;;;;;26.88;11.23;;;3.00;99.90;;;;;;5081905;28;20190;-43
2024/01/28 06:17:45;;;;;;;23.00;12.25;;;3.00;99.90;;;;;;5082505;28;20189;-47
2024/01/28 06:20:12;;;;;;;29.00;11.10;;;3.00;99.90;;;;;;5082389;28;20250;-44
2024/01/28 06:22:38;;;;;;;23.95;10.73;;;3.00;99.90;;;;;;5081979;28;20202;-42
2024/01/28 06:25:06;;;;;;;27.42;11.10;;;3.00;99.90;;;;;;5081079;28;20189;-40
2024/01/28 06:27:32;;;;;;;23.85;10.32;;;2.90;99.90;;;;;;5081687;28;20190;-42
2024/01/28 06:29:58;;;;;;;26.75;11.57;;;3.00;99.90;;;;;;5081825;28;20237;-39
2024/01/28 06:32:24;;;;;;;17.40;9.93;;;2.90;99.90;;;;;;5079797;28;20217;-42
2024/01/28 06:34:50;;;;;;;22.00;10.75;;;2.90;99.90;;;;;;5081986;28;20202;-45
2024/01/28 06:37:15;;;;;;;23.67;11.00;;;2.90;99.90;;;;;;5080266;28;20215;-46
2024/01/28 06:39:42;;;;;;;21.15;10.70;;;2.90;99.90;;;;;;5081301;28;20295;-38
2024/01/28 06:42:09;;;;;;;22.23;10.82;;;2.90;99.90;;;;;;5080340;28;20217;-44
2024/01/28 06:44:36;;;;;;;24.88;10.35;;;2.90;99.90;;;;;;5081765;28;20207;-43
2024/01/28 06:47:03;;;;;;;23.25;11.15;;;2.80;99.90;;;;;;5081343;28;20193;-48
2024/01/28 06:49:29;;;;;;;27.20;10.60;;;2.80;99.90;;;;;;5081763;28;20312;-39
2024/01/28 06:51:55;;;;;;;22.20;10.48;;;2.80;99.90;;;;;;5081151;28;20201;-39
2024/01/28 06:54:21;;;;;;;24.80;10.93;;;2.80;99.90;;;;;;5066510;28;20188;-39
2024/01/28 06:56:50;;;;;;;24.95;11.32;;;2.80;99.90;;;;;;5081762;28;20205;-42
2024/01/28 06:59:18;;;;;;;23.42;11.00;;;2.70;99.90;;;;;;5081192;28;20197;-43
2024/01/28 07:01:47;;;;;;;25.15;10.63;;;2.70;99.90;;;;;;5081306;28;20190;-38
2024/01/28 07:04:13;;;;;;;25.85;11.02;;;2.70;99.90;;;;;;5081203;28;20186;-42
2024/01/28 07:06:38;;;;;;;25.13;10.40;;;2.60;99.90;;;;;;5081032;28;20798;-42
2024/01/28 07:09:05;;;;;;;21.85;10.63;;;2.60;99.90;;;;;;5063354;28;20186;-39
2024/01/28 07:11:31;;;;;;;18.55;10.50;;;2.60;99.90;;;;;;5080679;28;20214;-44
2024/01/28 07:13:57;;;;;;;24.02;11.00;;;2.60;99.90;;;;;;5081167;28;20227;-45
2024/01/28 07:16:23;;;;;;;21.25;10.48;;;2.60;99.90;;;;;;5081321;28;20185;-38
2024/01/28 07:18:49;;;;;;;25.08;10.98;;;2.50;99.90;;;;;;5080578;28;20197;-39
2024/01/28 07:21:15;;;;;;;25.23;11.75;;;2.50;99.90;;;;;;5079141;28;20194;-40
2024/01/28 07:23:41;;;;;;;29.25;10.82;;;2.50;99.90;;;;;;5080340;28;20189;-42
2024/01/28 07:26:08;;;;;;;21.33;11.05;;;2.50;99.90;;;;;;5081414;28;20190;-41
2024/01/28 07:28:34;;;;;;;24.70;12.00;;;2.50;99.90;;;;;;5079333;28;20204;-41
2024/01/28 07:31:00;;;;;;;23.58;12.35;;;2.40;99.90;;;;;;5079553;28;20320;-40
2024/01/28 07:33:26;;;;;;;27.48;12.43;;;2.40;99.90;;;;;;5079475;28;20185;-44
2024/01/28 07:35:53;;;;;;;23.65;12.10;;;2.40;99.90;;;;;;5079955;28;20250;-38
2024/01/28 07:38:19;;;;;;;29.27;12.68;;;2.40;99.90;;;;;;5062581;28;20205;-42
2024/01/28 07:40:44;;;;;;;27.10;12.63;;;2.30;99.90;;;;;;5062514;28;20233;-42
2024/01/28 07:43:10;;;;;;;26.48;11.65;;;2.30;99.90;;;;;;5062588;28;20198;-42
2024/01/28 07:45:37;;;;;;;23.80;11.80;;;2.30;99.90;;;;;;5080875;28;20201;-39
2024/01/28 07:48:04;;;;;;;24.33;11.20;;;2.30;99.90;;;;;;5081059;28;20193;-44
2024/01/28 07:50:29;;;;;;;24.90;11.05;;;2.30;99.90;;;;;;5079384;28;20638;-44
2024/01/28 07:52:55;;;;;;;23.90;10.93;;;2.30;99.90;;;;;;5080460;28;20186;-44
2024/01/28 07:55:21;;;;;;;26.52;11.70;;;2.40;99.90;;;;;;5079250;28;20715;-42
2024/01/28 07:57:47;;;;;;;21.60;11.15;;;2.40;99.90;;;;;;5080574;28;20626;-46
2024/01/28 08:00:14;;;;;;;22.20;10.63;;;2.40;99.90;;;;;;5080858;28;20182;-41
2024/01/28 08:02:40;;;;;;;18.85;10.75;;;2.50;99.90;;;;;;5080595;28;20182;-39
2024/01/28 08:05:07;;;;;;;29.67;11.70;;;2.50;99.90;;;;;;5081005;28;20189;-41
2024/01/28 08:07:32;;;;;;;24.08;11.20;;;2.50;99.90;;;;;;5066910;28;20205;-45
2024/01/28 08:09:58;;;;;;;26.40;11.02;;;2.50;99.90;;;;;;5080522;28;20201;-45
2024/01/28 08:12:24;;;;;;;25.52;10.95;;;2.50;99.90;;;;;;5080500;28;20232;-39
2024/01/28 08:14:50;;;;;;;27.98;11.35;;;2.50;99.90;;;;;;5080641;28;20322;-45
2024/01/28 08:17:16;;;;;;;25.38;10.93;;;2.60;99.90;;;;;;5080064;28;20196;-43
2024/01/28 08:19:42;;;;;;;21.48;10.88;;;2.70;99.90;;;;;;5079147;28;20205;-42
2024/01/28 08:22:08;;;;;;;18.08;9.52;;;2.80;99.90;;;;;;5080113;28;20288;-41
2024/01/28 08:24:34;;;;;;;25.45;10.13;;;2.80;99.90;;;;;;5080151;28;20200;-38
2024/01/28 08:27:00;;;;;;;19.50;9.90;;;2.90;99.90;;;;;;5079226;28;20270;-42
2024/01/28 08:29:26;;;;;;;24.17;10.27;;;2.90;99.90;;;;;;5045680;28;20193;-38
2024/01/28 08:31:52;;;;;;;21.13;10.10;;;2.90;99.90;;;;;;5083708;28;20214;-40
2024/01/28 08:34:17;;;;;;;22.80;10.68;;;2.90;99.90;;;;;;5048928;28;20991;-43
2024/01/28 08:36:43;;;;;;;24.80;10.63;;;2.90;99.90;;;;;;5065890;28;20190;-43
2024/01/28 08:39:10;;;;;;;20.15;10.70;;;2.90;99.90;;;;;;5082775;28;20621;-42
2024/01/28 08:41:39;;;;;;;25.45;11.05;;;2.90;99.90;;;;;;5083306;28;20201;-41
2024/01/28 08:44:05;;;;;;;27.70;10.60;;;2.90;99.90;;;;;;5066405;28;20576;-42
2024/01/28 08:46:32;;;;;;;24.02;10.75;;;2.90;99.90;;;;;;5063775;28;20190;-41
2024/01/28 08:48:58;;;;;;;22.52;10.82;;;2.90;99.90;;;;;;5082610;28;20212;-36
2024/01/28 08:51:24;;;;;;;20.73;10.52;;;2.90;99.90;;;;;;5065266;28;20221;-39
2024/01/28 08:53:49;;;;;;;19.92;10.60;;;3.00;99.90;;;;;;5063875;28;20234;-46
2024/01/28 08:56:15;;;;;;;23.70;10.65;;;3.00;99.90;;;;;;5065365;28;20669;-43
2024/01/28 08:58:41;;;;;;;21.75;10.50;;;3.00;99.90;;;;;;5082377;28;20185;-40
2024/01/28 09:01:08;;;;;;;21.52;10.55;;;3.00;99.90;;;;;;5081739;28;20239;-44
2024/01/28 09:03:34;;;;;;;19.20;9.88;;;3.10;99.90;;;;;;5065128;28;20272;-42
2024/01/28 09:06:05;;;;;;;26.73;11.30;;;3.10;99.90;;;;;;5083160;28;20321;-38
2024/01/28 09:08:31;;;;;;;18.70;10.35;;;3.10;99.90;;;;;;5083817;28;20186;-40
2024/01/28 09:10:57;;;;;;;21.23;10.40;;;3.20;99.90;;;;;;5081829;28;20310;-42
2024/01/28 09:13:26;;;;;;;20.30;9.85;;;3.20;99.90;;;;;;5083361;28;20292;-39
2024/01/28 09:15:53;;;;;;;24.05;11.05;;;3.20;99.90;;;;;;5083101;28;20277;-44
2024/01/28 09:18:19;;;;;;;20.30;9.98;;;3.30;99.90;;;;;;5083492;28;20200;-41
2024/01/28 09:20:46;;;;;;;21.90;9.82;;;3.40;99.90;;;;;;5048867;28;20197;-38
2024/01/28 09:23:11;;;;;;;22.60;10.27;;;3.40;99.90;;;;;;5081451;28;20255;-44
2024/01/28 09:25:37;;;;;;;19.65;9.35;;;3.50;99.90;;;;;;5081922;28;21460;-41
2024/01/28 09:28:04;;;;;;;24.83;9.85;;;3.50;99.90;;;;;;5064532;28;20198;-40
2024/01/28 09:30:30;;;;;;;19.98;9.70;;;3.70;99.90;;;;;;5065061;28;20190;-44
2024/01/28 09:32:56;;;;;;;17.75;9.35;;;3.70;99.90;;;;;;5083111;28;20229;-46
2024/01/28 09:35:22;;;;;;;21.63;9.05;;;3.90;99.90;;;;;;5082518;28;20950;-45
2024/01/28 09:37:48;;;;;;;17.88;8.48;;;4.00;99.90;;;;;;5081726;28;20182;-44
2024/01/28 09:40:15;;;;;;;22.33;9.10;;;4.10;99.90;;;;;;5081192;28;20610;-48
2024/01/28 09:42:57;;;;;;;21.92;8.55;;;4.30;99.90;;;;;;5081001;28;20186;-46
2024/01/28 09:45:24;;;;;;;15.75;8.32;;;4.40;99.90;;;;;;5080868;28;20201;-46
2024/01/28 09:47:51;;;;;;;18.85;7.95;;;4.60;99.90;;;;;;5080942;28;20649;-47
2024/01/28 09:50:18;;;;;;;17.23;7.95;;;4.80;99.90;;;;;;5082394;28;20221;-43
2024/01/28 09:52:45;;;;;;;18.48;8.38;;;4.90;99.90;;;;;;5082801;28;20209;-41
2024/01/28 09:55:11;;;;;;;15.73;7.38;;;5.10;99.90;;;;;;5064920;28;20196;-41
2024/01/28 09:57:38;;;;;;;14.40;7.18;;;5.30;99.90;;;;;;5083050;28;20186;-43
2024/01/28 10:00:07;;;;;;;15.57;6.03;;;5.40;99.90;;;;;;5082126;28;20185;-47
2024/01/28 10:02:39;;;;;;;11.30;5.85;;;5.50;99.90;;;;;;5082241;28;20201;-43
2024/01/28 10:05:10;;;;;;;14.25;5.70;;;5.60;99.90;;;;;;5081961;28;20379;-50
2024/01/28 10:07:47;;;;;;;15.20;6.25;;;5.70;99.90;;;;;;5081264;28;20190;-43
2024/01/28 10:10:16;;;;;;;11.65;5.72;;;5.80;99.90;;;;;;5079560;28;20220;-40
2024/01/28 10:12:42;;;;;;;16.25;5.75;;;5.90;99.90;;;;;;5082201;28;20202;-39
2024/01/28 10:15:15;;;;;;;14.45;5.82;;;5.90;99.90;;;;;;5081339;28;20658;-43
2024/01/28 10:17:46;;;;;;;11.77;5.30;;;5.90;99.90;;;;;;5081975;28;20253;-44
2024/01/28 10:20:14;;;;;;;12.25;5.80;;;5.90;99.90;;;;;;5082402;28;20255;-45
2024/01/28 10:22:40;;;;;;;10.45;4.95;;;5.90;99.90;;;;;;5063673;28;20251;-42
2024/01/28 10:25:11;;;;;;;12.20;5.28;;;5.90;99.90;;;;;;5080561;28;20194;-43
2024/01/28 10:27:37;;;;;;;13.45;5.72;;;5.90;99.90;;;;;;5080921;28;20197;-40
2024/01/28 10:30:06;;;;;;;9.13;5.30;;;5.90;99.90;;;;;;5080511;28;20665;-44
2024/01/28 10:32:33;;;;;;;12.27;5.45;;;5.90;99.90;;;;;;5081181;28;20278;-50
2024/01/28 10:34:59;;;;;;;11.98;5.15;;;5.90;99.90;;;;;;5080538;28;20999;-46
2024/01/28 10:37:29;;;;;;;9.82;4.95;;;5.90;99.90;;;;;;5081436;28;20182;-48
2024/01/28 10:39:58;;;;;;;14.30;5.47;;;6.00;99.90;;;;;;5079443;28;20226;-41
2024/01/28 10:42:26;;;;;;;12.25;5.93;;;6.00;99.90;;;;;;5081974;28;20205;-42
2024/01/28 10:44:55;;;;;;;9.55;5.50;;;6.10;99.90;;;;;;5081877;28;20204;-43
2024/01/28 10:47:25;;;;;;;14.00;5.28;;;6.10;99.90;;;;;;5082117;28;20196;-42
2024/01/28 10:49:59;;;;;;;12.65;5.32;;;6.10;99.90;;;;;;5080613;28;20189;-41
2024/01/28 10:52:26;;;;;;;11.90;5.25;;;6.20;99.90;;;;;;5080919;28;20201;-41
2024/01/28 10:54:52;;;;;;;12.88;4.95;;;6.30;99.90;;;;;;5079270;28;20577;-45
2024/01/28 10:57:21;;;;;;;9.80;5.35;;;6.30;99.90;;;;;;5079943;28;20293;-40
2024/01/28 10:59:48;;;;;;;11.93;6.05;;;6.40;99.90;;;;;;5079956;28;21527;-41
2024/01/28 11:02:15;;;;;;;13.07;5.30;;;6.40;99.90;;;;;;5079142;28;20267;-41
2024/01/28 11:04:42;;;;;;;10.07;5.50;;;6.50;99.90;;;;;;5062736;28;20647;-43
2024/01/28 11:07:07;;;;;;;8.77;5.07;;;6.60;99.90;;;;;;5081189;28;20565;-42
2024/01/28 11:09:34;;;;;;;12.15;5.30;;;6.60;99.90;;;;;;5079608;28;20193;-44
2024/01/28 11:12:01;;;;;;;12.13;5.80;;;6.70;99.90;;;;;;5079642;28;20213;-43
2024/01/28 11:14:27;;;;;;;13.55;5.93;;;6.70;99.90;;;;;;5080999;28;20189;-48
2024/01/28 11:16:53;;;;;;;18.73;5.70;;;6.80;99.90;;;;;;5080717;28;20246;-44
2024/01/28 11:19:19;;;;;;;15.48;5.20;;;6.90;99.90;;;;;;5080779;28;20638;-40
2024/01/28 11:21:52;;;;;;;10.63;5.45;;;6.90;99.90;;;;;;5080195;28;20185;-39
2024/01/28 11:24:19;;;;;;;14.32;5.80;;;7.00;99.90;;;;;;5080016;28;20219;-47
2024/01/28 11:26:46;;;;;;;9.20;4.60;;;7.10;99.90;;;;;;5080700;28;20268;-43
2024/01/28 11:29:12;;;;;;;10.35;5.32;;;7.10;99.90;;;;;;5079150;28;20251;-45
2024/01/28 11:31:40;;;;;;;13.50;4.78;;;7.20;99.90;;;;;;5080084;28;20219;-42
2024/01/28 11:34:14;;;;;;;11.65;4.90;;;7.20;99.90;;;;;;5080391;28;20189;-44
2024/01/28 11:36:46;;;;;;;13.65;4.22;;;7.30;99.90;;;;;;5080631;28;20177;-45
2024/01/28 11:39:14;;;;;;;8.52;4.88;;;7.30;99.90;;;;;;5079338;28;20213;-40
2024/01/28 11:41:43;;;;;;;9.07;4.75;;;7.40;99.90;;;;;;5080619;28;20197;-43
2024/01/28 11:44:09;;;;;;;9.35;4.20;;;7.50;99.90;;;;;;5080163;28;20657;-44
2024/01/28 11:46:37;;;;;;;14.55;5.47;;;7.50;99.90;;;;;;5062865;28;20623;-46
2024/01/28 11:49:06;;;;;;;15.40;5.80;;;7.60;99.90;;;;;;5063023;28;20202;-44
2024/01/28 11:51:34;;;;;;;10.35;5.00;;;7.60;99.90;;;;;;5080574;28;21013;-43
2024/01/28 11:54:04;;;;;;;10.75;4.45;;;7.70;99.90;;;;;;5080367;28;20293;-43
2024/01/28 11:56:33;;;;;;;8.73;3.95;;;7.70;99.90;;;;;;5081228;28;20282;-43
2024/01/28 11:59:01;;;;;;;7.65;4.30;;;7.80;99.90;;;;;;5079198;28;20551;-38
2024/01/28 12:01:27;;;;;;;14.50;3.90;;;7.80;99.90;;;;;;5080895;28;20186;-44
2024/01/28 12:03:56;;;;;;;8.68;3.65;;;7.90;99.90;;;;;;5080149;28;20185;-41
2024/01/28 12:06:23;;;;;;;7.88;3.47;;;7.90;99.90;;;;;;5082310;28;21254;-41
2024/01/28 12:08:49;;;;;;;9.63;3.75;;;8.00;99.90;;;;;;5085182;28;20190;-41
2024/01/28 12:11:18;;;;;;;10.98;3.60;;;8.00;99.90;;;;;;5084196;28;20213;-43
2024/01/28 12:13:44;;;;;;;8.68;3.88;;;8.00;99.90;;;;;;5084369;28;20182;-44
2024/01/28 12:16:10;;;;;;;8.02;3.53;;;8.10;99.90;;;;;;5083809;28;20981;-47
2024/01/28 12:18:40;;;;;;;9.00;4.13;;;8.10;99.90;;;;;;5084064;28;20186;-44
2024/01/28 12:21:22;;;;;;;13.25;4.68;;;8.20;99.90;;;;;;5084709;28;20190;-39
2024/01/28 12:23:52;;;;;;;10.10;4.97;;;8.20;99.90;;;;;;5082341;28;20268;-49
2024/01/28 12:26:19;;;;;;;11.30;3.72;;;8.20;99.90;;;;;;5082419;28;20200;-44
2024/01/28 12:28:50;;;;;;;9.40;4.05;;;8.30;99.90;;;;;;5083416;28;20182;-37
2024/01/28 12:31:18;;;;;;;9.27;4.20;;;8.30;99.90;;;;;;5067590;28;20220;-50
2024/01/28 12:33:45;;;;;;;10.05;4.80;;;8.40;99.90;;;;;;5083171;28;20223;-43
2024/01/28 12:36:11;;;;;;;11.40;4.75;;;8.40;99.90;;;;;;5082920;28;22052;-50
2024/01/28 12:38:38;;;;;;;10.43;4.22;;;8.40;99.90;;;;;;5082376;28;20277;-46